Pagrindinis puslapis
METAR-TAF:

METAR-TAF

Oro uostai :

Ndžamena, Čadas

platuma: 12-08N, ilguma: 015-02E, Aukštis: 295 m

Dabartinis oras

Ataskaita buvo paskelbta 1 valandą ir 5 minutes, ne 04:00 UTC
Vėjas 7 kt iš Rytų/Pietryčių
Temperatūra 26°C
Drėgmė 74%
Slėgis 1010 hPa
Matomumas: 8000 m

METAR: FTTJ 180400Z 12007KT 8000 NSC 26/21 Q1010 NOSIG

Laikas: 06:05 (05:05 UTC)

Prognozė

Ataskaita buvo paskelbta 6 valandos ir 5 minutes, ne 23:00 UTC
Prognozė galioja nuo 18 metu 00 UTC su 19 metu 06 UTC
Vėjas 4 kt nuo kintamojo kryptimis
Matomumas 10 km arba daugiau
Mažai debesys ne aukštis 3000 ft
Tapsmas
nuo 18 metu 08 UTC su 18 metu 10 UTC
Vėjas 10 kt iš Pietryčių
Laikinai
nuo 18 metu 15 UTC su 18 metu 20 UTC
Išsisklaidę debesys ne aukštis 3000 ft
Mažai debesys ne aukštis 4000 ft, Liūtiniai kamuoliniai debesys.
perkūnija

TAF: FTTJ 172300Z 1800/1906 VRB04KT 9999 FEW030 BECMG 1808/1810 14010KT TEMPO 1815/1820 TS SCT030 FEW040CB

Orai ataskaitas ir orų prognozės (METAR, TAF).

turimą stotys yra geltonos ir raudonos taškus žemėlapyje.

Perkelti pele per norėdami pamatyti stoties vardą.

Tada spustelėkite, norėdami matyti oro stebėjimo ir prognozės.

Norėdami pakeisti žemėlapį: spustelėkite ant žalios mygtukų su juodo kryžiaus žemyn,; žalią mygtuką su brūkšneliu, jei norite nutolinti; arba žalių rodyklių gretimoms žemėlapius.


METAR-TAF: